Time;durP1;ratioP1;P1;durP2;ratioP2;P2;SDS_P1;SDS_P2;PMS_P1;PMS_P2;Temp;Humidity;BMP_temperature;BMP_pressure;BME280_temperature;BME280_humidity;BME280_pressure;Samples;Min_cycle;Max_cycle;Signal;HPM_P1;HPM_P2
2022/03/02 05:01:36;;;;;;;15.73;10.02;;;-3.70;99.90;;;;;;5426918;22;96936;-74
2022/03/02 05:04:02;;;;;;;16.50;9.73;;;-3.70;99.90;;;;;;4939985;28;100498;-73
2022/03/02 05:06:28;;;;;;;20.33;10.23;;;-3.70;99.90;;;;;;4957993;28;94380;-74
2022/03/02 05:08:53;;;;;;;16.13;10.52;;;-3.80;99.90;;;;;;4957063;28;94608;-74
2022/03/02 05:11:19;;;;;;;18.00;10.00;;;-3.90;99.90;;;;;;4938796;28;97700;-75
2022/03/02 05:13:44;;;;;;;16.95;10.18;;;-3.90;99.90;;;;;;4943295;28;98574;-75
2022/03/02 05:16:10;;;;;;;23.15;11.02;;;-4.00;99.90;;;;;;4957795;28;94461;-75
2022/03/02 05:18:35;;;;;;;17.10;10.75;;;-3.90;99.90;;;;;;4939235;28;94686;-75
2022/03/02 05:21:01;;;;;;;21.27;11.23;;;-3.90;99.90;;;;;;4956954;28;95558;-76
2022/03/02 05:23:27;;;;;;;19.35;10.82;;;-3.90;99.90;;;;;;4939138;28;97989;-76
2022/03/02 05:25:52;;;;;;;20.40;10.73;;;-3.90;99.90;;;;;;4957209;28;94484;-75
2022/03/02 05:28:18;;;;;;;16.80;10.25;;;-3.70;99.90;;;;;;4957548;28;93772;-75
2022/03/02 05:30:43;;;;;;;19.48;11.60;;;-3.60;99.90;;;;;;4938927;28;98108;-75
2022/03/02 05:33:10;;;;;;;18.10;10.95;;;-3.40;99.90;;;;;;4939418;28;96500;-75
2022/03/02 05:35:35;;;;;;;19.88;11.50;;;-3.30;99.90;;;;;;4956854;28;95324;-75
2022/03/02 05:38:01;;;;;;;19.67;11.70;;;-3.20;99.90;;;;;;4956821;28;94524;-75
2022/03/02 05:40:26;;;;;;;20.65;11.43;;;-3.10;99.90;;;;;;4956458;28;95497;-75
2022/03/02 05:42:59;;;;;;;18.38;11.10;;;-3.00;99.90;;;;;;4939166;28;97963;-76
2022/03/02 05:45:24;;;;;;;18.63;11.05;;;-3.00;99.90;;;;;;4939162;28;94523;-75
2022/03/02 05:47:50;;;;;;;18.60;10.57;;;-2.90;99.90;;;;;;4938528;28;94509;-75
2022/03/02 05:50:15;;;;;;;19.67;11.43;;;-2.80;99.90;;;;;;4938782;28;97898;-75
2022/03/02 05:52:41;;;;;;;20.05;11.48;;;-2.60;99.90;;;;;;4958328;28;95319;-75
2022/03/02 05:55:07;;;;;;;19.73;11.43;;;-2.40;99.90;;;;;;4958838;28;94453;-76
2022/03/02 05:57:32;;;;;;;21.27;11.57;;;-2.40;99.90;;;;;;4958049;28;94568;-75
2022/03/02 05:59:58;;;;;;;19.75;10.68;;;-2.30;99.90;;;;;;4955841;28;96319;-75
2022/03/02 06:02:23;;;;;;;22.90;11.27;;;-2.20;99.90;;;;;;4938179;28;99209;-75
2022/03/02 06:04:49;;;;;;;18.67;10.23;;;-2.10;99.90;;;;;;4956847;28;94888;-75
2022/03/02 06:07:14;;;;;;;17.58;9.85;;;-2.10;99.90;;;;;;4956660;28;94571;-76
2022/03/02 06:09:40;;;;;;;19.02;11.82;;;-2.00;99.90;;;;;;4957034;28;94525;-75
2022/03/02 06:12:06;;;;;;;20.88;11.55;;;-2.00;99.90;;;;;;4970959;28;95397;-76
2022/03/02 06:14:32;;;;;;;18.88;11.32;;;-1.90;99.90;;;;;;4976189;28;94389;-76
2022/03/02 06:16:58;;;;;;;18.83;11.93;;;-1.70;99.90;;;;;;4976418;28;93743;-77
2022/03/02 06:19:24;;;;;;;16.63;10.40;;;-1.70;99.90;;;;;;4958008;28;96956;-80
2022/03/02 06:21:52;;;;;;;15.93;9.95;;;-1.70;99.90;;;;;;4975924;28;94884;-77
2022/03/02 06:24:17;;;;;;;20.60;10.70;;;-1.70;99.90;;;;;;4958887;28;95518;-76
2022/03/02 06:26:44;;;;;;;17.35;9.82;;;-1.60;99.90;;;;;;4976516;28;94541;-77
2022/03/02 06:29:09;;;;;;;17.90;10.30;;;-1.60;99.90;;;;;;4977339;28;94562;-77
2022/03/02 06:31:35;;;;;;;21.17;10.70;;;-1.50;99.90;;;;;;4976206;28;94953;-76
2022/03/02 06:34:01;;;;;;;16.55;10.93;;;-1.30;99.90;;;;;;4958850;28;94545;-77
2022/03/02 06:36:27;;;;;;;18.08;10.13;;;-1.30;99.90;;;;;;4978204;28;94479;-78
2022/03/02 06:38:52;;;;;;;18.75;11.00;;;-1.20;99.90;;;;;;4960269;28;96561;-78
2022/03/02 06:41:35;;;;;;;20.42;11.40;;;-1.20;99.90;;;;;;4960678;28;97651;-79
2022/03/02 06:44:17;;;;;;;17.85;11.00;;;-1.10;99.90;;;;;;4976067;28;94487;-75
2022/03/02 06:46:57;;;;;;;19.10;11.35;;;-1.10;99.90;;;;;;4960172;28;94536;-78
2022/03/02 06:49:35;;;;;;;19.73;11.65;;;-1.00;99.90;;;;;;4977226;28;95325;-74
2022/03/02 06:52:03;;;;;;;22.80;11.70;;;-0.90;99.90;;;;;;4977750;28;94612;-77
2022/03/02 06:54:32;;;;;;;19.85;11.57;;;-0.80;99.90;;;;;;4977716;28;94505;-73
2022/03/02 06:57:01;;;;;;;21.73;11.45;;;-0.80;99.90;;;;;;4960147;28;94508;-76
2022/03/02 06:59:39;;;;;;;22.17;11.35;;;-0.70;99.90;;;;;;4977359;28;95745;-75
2022/03/02 07:02:07;;;;;;;24.52;11.02;;;-0.70;99.90;;;;;;4959376;28;97491;-74
2022/03/02 07:04:40;;;;;;;18.60;11.10;;;-0.60;99.90;;;;;;4977856;28;94362;-76
2022/03/02 07:07:07;;;;;;;22.55;11.63;;;-0.60;99.90;;;;;;4960412;28;93865;-74
2022/03/02 07:09:34;;;;;;;21.17;11.82;;;-0.50;99.90;;;;;;4977407;28;95124;-75
2022/03/02 07:12:01;;;;;;;20.05;11.82;;;-0.40;99.90;;;;;;4977190;28;94531;-75
2022/03/02 07:14:31;;;;;;;23.00;12.18;;;-0.40;99.90;;;;;;4975342;28;95412;-74
2022/03/02 07:17:01;;;;;;;18.67;11.85;;;-0.40;99.90;;;;;;4975681;28;94324;-73
2022/03/02 07:19:27;;;;;;;18.33;11.13;;;-0.30;99.90;;;;;;4957114;28;98206;-75
2022/03/02 07:21:55;;;;;;;17.85;11.77;;;-0.30;99.90;;;;;;4975223;28;95177;-73
2022/03/02 07:24:22;;;;;;;20.48;11.23;;;-0.10;99.90;;;;;;4975576;28;94549;-75
2022/03/02 07:26:54;;;;;;;17.33;11.73;;;-0.10;99.90;;;;;;4976152;28;94449;-73
2022/03/02 07:29:22;;;;;;;19.40;11.50;;;0.10;99.90;;;;;;4975141;28;95131;-75
2022/03/02 07:31:51;;;;;;;20.55;11.73;;;0.20;99.90;;;;;;4975125;28;97432;-74
2022/03/02 07:34:17;;;;;;;21.02;11.88;;;0.30;99.90;;;;;;4974932;28;94494;-74
2022/03/02 07:36:44;;;;;;;17.65;11.15;;;0.30;99.90;;;;;;4956994;28;95200;-73
2022/03/02 07:39:11;;;;;;;20.25;11.48;;;0.30;99.90;;;;;;4975010;28;96295;-75
2022/03/02 07:41:37;;;;;;;22.33;11.85;;;0.30;99.90;;;;;;4960887;28;97489;-74
2022/03/02 07:44:04;;;;;;;18.40;11.60;;;0.40;99.90;;;;;;4977615;28;94748;-74
2022/03/02 07:46:30;;;;;;;22.88;11.77;;;0.50;99.90;;;;;;4983359;28;94478;-75
2022/03/02 07:48:56;;;;;;;19.95;13.23;;;0.60;99.90;;;;;;4978743;28;97035;-75
2022/03/02 07:51:24;;;;;;;20.55;12.05;;;0.60;99.90;;;;;;4981247;28;95041;-73
2022/03/02 07:53:51;;;;;;;22.42;12.40;;;0.70;99.90;;;;;;4975290;28;94577;-74
2022/03/02 07:56:18;;;;;;;19.98;12.10;;;0.80;99.90;;;;;;4975998;28;93787;-74
2022/03/02 07:58:44;;;;;;;24.50;14.07;;;1.00;99.90;;;;;;4974969;28;95334;-75
2022/03/02 08:01:18;;;;;;;21.20;14.85;;;1.10;99.90;;;;;;4972419;28;94396;-73
2022/03/02 08:03:47;;;;;;;22.73;14.10;;;1.20;99.90;;;;;;4956138;28;95372;-73
2022/03/02 08:06:13;;;;;;;26.95;14.63;;;1.40;99.90;;;;;;4974445;28;94567;-74
2022/03/02 08:08:39;;;;;;;24.27;13.93;;;1.50;99.90;;;;;;4974281;28;94971;-74
2022/03/02 08:11:05;;;;;;;24.73;13.82;;;1.60;99.90;;;;;;4975426;28;94582;-75
2022/03/02 08:13:34;;;;;;;23.48;13.10;;;1.70;99.90;;;;;;4977768;28;94521;-74
2022/03/02 08:16:00;;;;;;;30.90;13.48;;;1.80;99.90;;;;;;4959920;28;94508;-74
2022/03/02 08:18:26;;;;;;;21.73;12.90;;;2.00;99.90;;;;;;4977591;28;94752;-74
2022/03/02 08:20:54;;;;;;;18.92;12.07;;;2.10;99.90;;;;;;4978135;28;95445;-74
2022/03/02 08:23:21;;;;;;;19.38;12.50;;;2.30;99.90;;;;;;4978142;28;94444;-75
2022/03/02 08:25:53;;;;;;;23.98;11.75;;;2.40;99.90;;;;;;4978333;28;94536;-74
2022/03/02 08:28:21;;;;;;;18.40;12.05;;;2.30;99.90;;;;;;4976955;28;96310;-74
2022/03/02 08:30:51;;;;;;;20.15;12.77;;;2.40;99.90;;;;;;4977120;28;96443;-74
2022/03/02 08:33:21;;;;;;;17.58;12.05;;;2.60;99.90;;;;;;4977764;28;94740;-74
2022/03/02 08:35:50;;;;;;;23.17;11.65;;;2.80;99.90;;;;;;4960282;28;94618;-74
2022/03/02 08:38:16;;;;;;;17.35;10.50;;;2.90;99.90;;;;;;4977864;28;95414;-74
2022/03/02 08:40:43;;;;;;;17.38;10.25;;;2.90;99.90;;;;;;4959980;28;94554;-74
2022/03/02 08:43:08;;;;;;;16.60;11.30;;;3.00;99.90;;;;;;4978238;28;94493;-74
2022/03/02 08:45:34;;;;;;;17.20;10.02;;;3.00;99.90;;;;;;4977965;28;93791;-74
2022/03/02 08:48:05;;;;;;;15.98;10.27;;;3.10;99.90;;;;;;4970761;28;95986;-75
2022/03/02 08:50:31;;;;;;;14.75;9.82;;;3.30;99.90;;;;;;4975311;28;95321;-73
2022/03/02 08:52:58;;;;;;;14.20;9.90;;;3.50;99.90;;;;;;4976948;28;95317;-74
2022/03/02 08:55:27;;;;;;;16.48;10.23;;;3.70;99.90;;;;;;4951369;28;94920;-73
2022/03/02 08:57:54;;;;;;;16.95;10.25;;;3.70;99.90;;;;;;4976812;28;95507;-75
2022/03/02 09:00:20;;;;;;;16.30;10.85;;;3.80;99.90;;;;;;4944969;28;96666;-75
2022/03/02 09:02:47;;;;;;;17.13;10.65;;;3.80;99.90;;;;;;4976892;28;94639;-74
2022/03/02 09:05:13;;;;;;;16.10;10.63;;;3.70;99.90;;;;;;4976786;28;94499;-74
2022/03/02 09:07:39;;;;;;;15.77;10.93;;;3.90;99.90;;;;;;4976935;28;94966;-75
2022/03/02 09:10:05;;;;;;;16.67;9.82;;;4.10;99.90;;;;;;4976667;28;94011;-74
2022/03/02 09:12:31;;;;;;;20.20;10.75;;;4.50;99.90;;;;;;4959955;28;94480;-75
2022/03/02 09:14:57;;;;;;;15.52;10.57;;;4.60;99.90;;;;;;4976705;28;95033;-76
2022/03/02 09:17:25;;;;;;;15.73;10.13;;;4.60;99.90;;;;;;4946614;28;97353;-74
2022/03/02 09:19:52;;;;;;;17.70;10.85;;;4.80;99.40;;;;;;4975755;28;95113;-75
2022/03/02 09:22:18;;;;;;;18.35;9.93;;;4.70;99.50;;;;;;4970700;28;94397;-77
2022/03/02 09:24:44;;;;;;;14.57;9.63;;;5.00;97.80;;;;;;4948164;28;94652;-77
2022/03/02 09:27:11;;;;;;;15.52;10.43;;;4.90;98.50;;;;;;4976478;28;94457;-75
2022/03/02 09:29:42;;;;;;;17.55;10.73;;;4.70;97.90;;;;;;4971107;28;94687;-74
2022/03/02 09:32:10;;;;;;;17.10;10.65;;;4.50;98.70;;;;;;4950269;28;94693;-75
2022/03/02 09:34:40;;;;;;;15.27;10.73;;;4.70;99.00;;;;;;4971375;28;93618;-75
2022/03/02 09:37:12;;;;;;;14.25;10.55;;;4.90;98.70;;;;;;4950240;28;97894;-76
2022/03/02 09:39:38;;;;;;;15.63;10.30;;;5.00;97.80;;;;;;4971009;28;94862;-75
2022/03/02 09:42:18;;;;;;;16.75;11.07;;;5.10;97.90;;;;;;4976184;28;95327;-75
2022/03/02 09:44:47;;;;;;;17.67;9.85;;;5.20;98.10;;;;;;4972824;28;94640;-75
2022/03/02 09:47:20;;;;;;;13.65;9.40;;;5.20;97.20;;;;;;4976526;28;95068;-76
2022/03/02 09:49:50;;;;;;;18.50;9.18;;;5.30;98.10;;;;;;4948685;28;96743;-76
2022/03/02 09:52:21;;;;;;;14.73;9.80;;;5.70;96.30;;;;;;4976878;28;94274;-78
2022/03/02 09:54:53;;;;;;;14.43;10.25;;;5.90;96.30;;;;;;4977035;28;94467;-74
2022/03/02 09:57:20;;;;;;;13.75;9.57;;;5.90;95.40;;;;;;4971117;28;94574;-75
2022/03/02 09:59:52;;;;;;;15.35;10.02;;;6.00;94.90;;;;;;4976499;28;98444;-76
2022/03/02 10:02:32;;;;;;;15.35;10.32;;;6.10;96.30;;;;;;4970905;28;94585;-74
2022/03/02 10:05:02;;;;;;;14.23;9.27;;;6.30;95.10;;;;;;4969971;28;94543;-75
2022/03/02 10:07:29;;;;;;;16.20;9.43;;;6.50;94.80;;;;;;4976161;28;98700;-76
2022/03/02 10:10:08;;;;;;;13.27;9.15;;;6.50;93.40;;;;;;4976332;28;94760;-75
2022/03/02 10:12:35;;;;;;;14.48;9.63;;;6.70;93.70;;;;;;4976845;28;94445;-75
2022/03/02 10:15:15;;;;;;;17.63;9.88;;;6.60;93.30;;;;;;4975924;28;94707;-76
2022/03/02 10:17:43;;;;;;;15.70;9.50;;;6.70;93.20;;;;;;4977256;28;95186;-75
2022/03/02 10:20:14;;;;;;;16.15;9.35;;;6.70;93.20;;;;;;4977784;28;96403;-75
2022/03/02 10:22:40;;;;;;;14.40;9.52;;;6.90;91.30;;;;;;4978118;28;94457;-75
2022/03/02 10:25:08;;;;;;;11.05;8.43;;;7.00;90.00;;;;;;4958628;28;93791;-74
2022/03/02 10:28:08;;;;;;;14.82;9.10;;;7.10;90.50;;;;;;4977650;28;94636;-74
2022/03/02 10:30:40;;;;;;;15.77;9.65;;;7.00;91.30;;;;;;4974435;28;94775;-76
2022/03/02 10:33:18;;;;;;;12.00;9.05;;;7.30;90.30;;;;;;4956860;28;95388;-74
2022/03/02 10:36:02;;;;;;;17.02;9.63;;;7.30;88.10;;;;;;4972297;28;94496;-74
2022/03/02 10:38:51;;;;;;;16.17;9.82;;;7.20;90.10;;;;;;4978736;28;95373;-74
2022/03/02 10:41:22;;;;;;;14.73;9.90;;;7.10;90.40;;;;;;4962187;28;94843;-75
2022/03/02 10:44:05;;;;;;;16.67;9.63;;;6.80;91.60;;;;;;4977821;28;94472;-75
2022/03/02 10:46:32;;;;;;;12.65;9.13;;;6.90;92.00;;;;;;4959923;28;94626;-75
2022/03/02 10:49:03;;;;;;;12.43;9.32;;;6.90;91.00;;;;;;4976269;28;95671;-75
2022/03/02 10:51:31;;;;;;;12.02;9.02;;;7.10;91.00;;;;;;4977011;28;93849;-75
2022/03/02 10:53:57;;;;;;;13.48;9.10;;;7.30;89.30;;;;;;4979136;28;94321;-75
2022/03/02 10:56:27;;;;;;;13.10;8.90;;;7.50;89.60;;;;;;4953805;28;95158;-76
2022/03/02 10:58:54;;;;;;;13.40;9.30;;;7.50;91.20;;;;;;4963453;28;99770;-75
2022/03/02 11:01:21;;;;;;;15.48;10.02;;;7.70;91.10;;;;;;4980408;28;96943;-75
2022/03/02 11:03:47;;;;;;;13.82;9.55;;;7.70;88.50;;;;;;4984184;28;94664;-74
2022/03/02 11:06:16;;;;;;;13.50;9.18;;;7.80;89.50;;;;;;4957897;28;94277;-75
2022/03/02 11:08:43;;;;;;;17.88;10.25;;;7.90;90.00;;;;;;4947746;28;97233;-74
2022/03/02 11:11:10;;;;;;;18.38;9.88;;;8.10;90.20;;;;;;4955845;28;94345;-74
2022/03/02 11:13:36;;;;;;;12.55;9.82;;;8.50;90.70;;;;;;4969821;28;94364;-73
2022/03/02 11:16:04;;;;;;;11.38;9.20;;;8.50;90.20;;;;;;4976516;28;93798;-75
2022/03/02 11:18:48;;;;;;;16.45;9.68;;;8.50;90.10;;;;;;4975979;28;94476;-75
2022/03/02 11:21:17;;;;;;;16.95;10.00;;;8.70;89.00;;;;;;4957587;28;97826;-75
2022/03/02 11:23:54;;;;;;;20.83;10.90;;;8.50;90.90;;;;;;4975017;28;95386;-74
2022/03/02 11:26:26;;;;;;;28.27;17.77;;;8.40;90.40;;;;;;4957386;28;94535;-75
2022/03/02 11:29:12;;;;;;;17.52;11.95;;;8.40;89.70;;;;;;4957496;28;97867;-74
2022/03/02 11:31:56;;;;;;;19.08;10.65;;;8.30;90.20;;;;;;4975135;28;94849;-74
2022/03/02 11:34:29;;;;;;;15.63;10.90;;;8.10;91.50;;;;;;4975160;28;94542;-75
2022/03/02 11:37:04;;;;;;;19.05;12.32;;;8.10;88.80;;;;;;4974983;28;94482;-74
2022/03/02 11:39:29;;;;;;;14.88;10.02;;;8.30;88.60;;;;;;4955708;28;97280;-75
2022/03/02 11:41:57;;;;;;;16.23;10.80;;;8.00;87.30;;;;;;4974221;28;93865;-74
2022/03/02 11:44:33;;;;;;;18.35;12.18;;;7.90;89.10;;;;;;4976243;28;94523;-74
2022/03/02 11:47:03;;;;;;;14.77;10.75;;;8.00;89.40;;;;;;4975075;28;94657;-76
2022/03/02 11:49:53;;;;;;;13.05;8.77;;;8.10;87.50;;;;;;4957572;28;96356;-75
2022/03/02 11:52:27;;;;;;;15.88;11.35;;;8.20;88.20;;;;;;4977390;28;96418;-76
2022/03/02 11:54:54;;;;;;;13.60;9.27;;;8.20;85.70;;;;;;4950947;28;95045;-77
2022/03/02 11:57:22;;;;;;;12.23;8.60;;;8.10;86.00;;;;;;4921601;28;94478;-74
2022/03/02 11:59:49;;;;;;;12.68;9.02;;;7.80;87.40;;;;;;4955476;28;94456;-73
2022/03/02 12:02:22;;;;;;;14.82;9.20;;;7.60;88.30;;;;;;4937083;28;97602;-75
2022/03/02 12:05:03;;;;;;;12.27;8.68;;;7.60;88.90;;;;;;4938253;28;94435;-75
2022/03/02 12:07:40;;;;;;;11.88;8.40;;;7.70;88.20;;;;;;4955604;28;94030;-74
2022/03/02 12:10:16;;;;;;;12.85;8.45;;;8.00;87.40;;;;;;4956071;28;95285;-74
2022/03/02 12:12:43;;;;;;;13.63;8.18;;;8.10;86.40;;;;;;4944755;28;95330;-73
2022/03/02 12:15:09;;;;;;;11.38;8.77;;;8.20;85.90;;;;;;4968475;28;95745;-75
2022/03/02 12:17:36;;;;;;;15.48;8.40;;;8.10;84.80;;;;;;4944121;28;94495;-75
2022/03/02 12:20:14;;;;;;;10.52;8.57;;;8.00;85.50;;;;;;4936918;28;97820;-75
2022/03/02 12:22:56;;;;;;;11.80;8.02;;;7.90;85.50;;;;;;4954827;28;96442;-74
2022/03/02 12:25:25;;;;;;;12.07;8.15;;;7.80;85.10;;;;;;4955942;28;94446;-74
2022/03/02 12:28:05;;;;;;;13.05;8.40;;;7.70;87.20;;;;;;4937125;28;94696;-74
2022/03/02 12:30:36;;;;;;;15.32;8.73;;;7.70;86.70;;;;;;4963391;28;94632;-75
2022/03/02 12:33:04;;;;;;;12.70;8.43;;;7.90;87.20;;;;;;4956977;28;95010;-75
2022/03/02 12:35:30;;;;;;;15.98;8.38;;;8.20;85.50;;;;;;4955392;28;94983;-75
2022/03/02 12:38:02;;;;;;;12.60;8.32;;;8.00;86.70;;;;;;4954241;28;94556;-77
2022/03/02 12:40:30;;;;;;;13.38;8.18;;;8.00;88.20;;;;;;4954326;28;95362;-76
2022/03/02 12:42:56;;;;;;;12.05;8.52;;;8.20;87.10;;;;;;4954374;28;94814;-75
2022/03/02 12:45:22;;;;;;;10.05;8.18;;;8.20;87.00;;;;;;4953877;28;94578;-75
2022/03/02 12:47:49;;;;;;;13.48;8.38;;;8.10;85.90;;;;;;4955050;28;94478;-77
2022/03/02 12:50:17;;;;;;;11.13;8.38;;;7.90;88.50;;;;;;4952801;28;96978;-76
2022/03/02 12:52:43;;;;;;;10.65;8.35;;;8.00;86.70;;;;;;4954830;28;94804;-75
2022/03/02 12:55:11;;;;;;;14.32;8.93;;;8.30;87.60;;;;;;4955332;28;94607;-75
2022/03/02 12:57:46;;;;;;;12.00;8.52;;;8.20;87.10;;;;;;4970373;28;94080;-76
2022/03/02 13:00:17;;;;;;;13.30;8.40;;;8.20;87.50;;;;;;4957866;28;94526;-75
2022/03/02 13:02:47;;;;;;;12.98;8.30;;;8.10;89.60;;;;;;4958220;28;95334;-74
2022/03/02 13:05:15;;;;;;;11.60;8.30;;;8.20;85.10;;;;;;4957887;28;95809;-75
2022/03/02 13:07:52;;;;;;;14.07;8.35;;;8.30;85.80;;;;;;4975449;28;94566;-75
2022/03/02 13:10:25;;;;;;;13.15;8.32;;;8.40;86.10;;;;;;4976664;28;95704;-74
2022/03/02 13:12:56;;;;;;;13.75;9.38;;;8.30;87.50;;;;;;4977364;28;95002;-75
2022/03/02 13:15:31;;;;;;;12.60;8.38;;;8.60;86.10;;;;;;4978096;28;94406;-75
2022/03/02 13:18:18;;;;;;;11.88;8.60;;;8.70;85.20;;;;;;4977199;28;94533;-76
2022/03/02 13:21:23;;;;;;;12.50;8.18;;;8.70;86.30;;;;;;4976486;28;94912;-75
2022/03/02 13:24:15;;;;;;;12.30;8.48;;;8.80;85.90;;;;;;4950282;28;98191;-75
2022/03/02 13:27:05;;;;;;;13.23;8.18;;;8.80;86.10;;;;;;4958143;28;94416;-73
2022/03/02 13:29:49;;;;;;;13.50;8.60;;;8.70;87.60;;;;;;4957886;28;94369;-74
2022/03/02 13:32:14;;;;;;;13.18;8.52;;;8.60;85.80;;;;;;4956898;28;95703;-74
2022/03/02 13:35:04;;;;;;;14.20;8.50;;;8.30;86.80;;;;;;4957092;28;98147;-74
2022/03/02 13:38:04;;;;;;;14.80;9.02;;;8.20;86.70;;;;;;4958037;28;94586;-74
2022/03/02 13:40:33;;;;;;;12.35;8.57;;;8.00;88.90;;;;;;4956487;28;94780;-75
2022/03/02 13:43:11;;;;;;;13.10;8.98;;;8.10;89.70;;;;;;4972384;28;95288;-75
2022/03/02 13:45:39;;;;;;;13.07;8.98;;;8.10;87.30;;;;;;4976782;28;94450;-74
2022/03/02 13:48:21;;;;;;;14.45;8.80;;;7.90;88.10;;;;;;4976489;28;94424;-74
2022/03/02 13:51:04;;;;;;;16.52;9.20;;;7.90;88.80;;;;;;4971255;28;93785;-74
2022/03/02 13:53:32;;;;;;;13.98;9.40;;;8.00;88.50;;;;;;4958870;28;97990;-76
2022/03/02 13:56:05;;;;;;;13.07;8.32;;;8.30;88.20;;;;;;4958326;28;94531;-75
2022/03/02 13:58:31;;;;;;;13.48;10.07;;;8.30;88.20;;;;;;4976458;28;95495;-76
2022/03/02 14:01:26;;;;;;;18.33;13.20;;;8.10;88.80;;;;;;4963557;28;94836;-75
2022/03/02 14:04:00;;;;;;;18.88;12.55;;;8.20;88.80;;;;;;4955634;28;95655;-75
2022/03/02 14:06:26;;;;;;;12.23;8.95;;;8.00;87.70;;;;;;4956335;28;94420;-75
2022/03/02 14:08:54;;;;;;;13.27;9.45;;;8.10;88.60;;;;;;4956534;28;94534;-76
2022/03/02 14:11:34;;;;;;;15.50;9.93;;;8.20;88.30;;;;;;4956840;28;94485;-76
2022/03/02 14:14:08;;;;;;;16.33;10.55;;;8.20;87.20;;;;;;4956912;28;94552;-74
2022/03/02 14:16:37;;;;;;;19.20;10.63;;;8.50;86.80;;;;;;4956796;28;95349;-76
2022/03/02 14:19:07;;;;;;;14.25;8.95;;;8.50;87.10;;;;;;4962008;28;94394;-75
2022/03/02 14:21:32;;;;;;;11.35;8.38;;;8.60;86.30;;;;;;4970979;28;94012;-75
2022/03/02 14:24:12;;;;;;;14.25;8.63;;;8.60;87.60;;;;;;4961266;28;95371;-75
2022/03/02 14:26:50;;;;;;;15.55;9.40;;;8.80;86.50;;;;;;4957022;28;95997;-74
2022/03/02 14:29:16;;;;;;;12.85;8.88;;;8.80;86.90;;;;;;4957141;28;94511;-74
2022/03/02 14:32:11;;;;;;;13.40;8.45;;;9.00;87.10;;;;;;4956706;28;94462;-74
2022/03/02 14:34:56;;;;;;;14.63;10.00;;;9.00;87.40;;;;;;4939180;28;96993;-74
2022/03/02 14:37:25;;;;;;;14.85;9.60;;;8.90;88.10;;;;;;4955679;28;95313;-75
2022/03/02 14:39:59;;;;;;;11.00;9.10;;;8.90;87.10;;;;;;4956690;28;94437;-75
2022/03/02 14:42:25;;;;;;;14.57;9.70;;;8.90;87.70;;;;;;4956644;28;93882;-75
2022/03/02 14:45:22;;;;;;;14.13;8.75;;;8.90;87.40;;;;;;4956501;28;94567;-75
2022/03/02 14:47:55;;;;;;;12.40;9.20;;;9.00;86.10;;;;;;4938356;28;96928;-75
2022/03/02 14:50:41;;;;;;;12.27;9.10;;;9.00;87.10;;;;;;4956020;28;95435;-74
2022/03/02 14:53:11;;;;;;;13.93;9.10;;;8.70;86.00;;;;;;4956649;28;94493;-76
2022/03/02 14:55:48;;;;;;;13.38;8.77;;;8.50;87.80;;;;;;4937899;28;96331;-75
2022/03/02 14:58:23;;;;;;;13.30;8.48;;;8.40;88.50;;;;;;4956202;28;94432;-75
2022/03/02 15:01:19;;;;;;;14.57;8.90;;;8.30;88.60;;;;;;4956252;28;94551;-75
2022/03/02 15:03:50;;;;;;;12.90;9.07;;;8.20;89.20;;;;;;4956841;28;94537;-76
2022/03/02 15:06:19;;;;;;;13.85;9.10;;;8.20;89.00;;;;;;4955882;28;95203;-75
2022/03/02 15:08:47;;;;;;;13.73;8.43;;;8.20;89.00;;;;;;4956214;28;95286;-75
2022/03/02 15:11:25;;;;;;;14.70;9.40;;;8.10;90.80;;;;;;4956196;28;94434;-75
2022/03/02 15:16:41;;;;;;;13.80;9.00;;;7.90;90.90;;;;;;4955009;28;95813;-75
2022/03/02 15:19:07;;;;;;;15.63;9.45;;;7.80;90.90;;;;;;4937858;28;98039;-75
2022/03/02 15:21:34;;;;;;;13.10;9.48;;;7.70;90.70;;;;;;4955664;28;94445;-74
2022/03/02 15:24:00;;;;;;;14.73;9.35;;;7.70;91.10;;;;;;4955966;28;94306;-74
2022/03/02 15:26:25;;;;;;;14.85;9.63;;;7.70;91.30;;;;;;4956073;28;94714;-73
2022/03/02 15:29:11;;;;;;;15.02;10.02;;;7.60;91.00;;;;;;4955536;28;94879;-75
2022/03/02 15:31:51;;;;;;;14.35;9.82;;;7.50;91.50;;;;;;4955590;28;94380;-74
2022/03/02 15:34:19;;;;;;;16.15;10.40;;;7.30;91.30;;;;;;4956020;28;93733;-76
2022/03/02 15:36:59;;;;;;;16.88;10.50;;;7.30;91.40;;;;;;4954832;28;95443;-75
2022/03/02 15:39:37;;;;;;;16.20;10.88;;;7.20;91.80;;;;;;4937108;28;98035;-75
2022/03/02 15:42:13;;;;;;;15.73;10.02;;;7.10;91.50;;;;;;4936909;28;95964;-75
2022/03/02 15:44:57;;;;;;;15.63;9.90;;;7.10;91.50;;;;;;4955461;28;94354;-75
2022/03/02 15:47:27;;;;;;;17.40;10.40;;;7.10;91.90;;;;;;4955370;28;95470;-74
2022/03/02 15:49:52;;;;;;;13.82;9.48;;;7.00;91.70;;;;;;4954540;28;95048;-74
2022/03/02 15:52:18;;;;;;;13.98;10.35;;;7.00;92.00;;;;;;4955845;28;94382;-75
2022/03/02 15:55:20;;;;;;;16.63;9.55;;;7.00;92.00;;;;;;4954487;28;95136;-75
2022/03/02 15:57:58;;;;;;;17.38;10.40;;;6.90;92.00;;;;;;4955335;28;94492;-75
2022/03/02 16:00:35;;;;;;;14.68;9.75;;;6.80;92.50;;;;;;4954228;28;93732;-75
2022/03/02 16:03:02;;;;;;;13.05;9.60;;;6.90;92.90;;;;;;4955567;28;94556;-75
2022/03/02 16:05:34;;;;;;;14.18;10.30;;;6.90;92.70;;;;;;4955382;28;94425;-75
2022/03/02 16:08:15;;;;;;;14.75;9.55;;;6.80;93.00;;;;;;4936055;28;97988;-75
2022/03/02 16:10:45;;;;;;;15.57;10.38;;;6.80;92.90;;;;;;4954904;28;95758;-75
2022/03/02 16:13:23;;;;;;;17.08;10.05;;;6.80;93.30;;;;;;4937056;28;94578;-75
2022/03/02 16:15:53;;;;;;;16.15;10.35;;;6.90;93.60;;;;;;4954891;28;94346;-75
2022/03/02 16:18:26;;;;;;;16.75;10.30;;;6.90;93.00;;;;;;4936286;28;98194;-75
2022/03/02 16:20:53;;;;;;;17.15;9.85;;;7.00;93.30;;;;;;4936159;28;96678;-75
2022/03/02 16:23:34;;;;;;;20.70;10.40;;;6.90;92.50;;;;;;4955540;28;94810;-75
2022/03/02 16:26:02;;;;;;;14.85;10.85;;;6.80;93.00;;;;;;4937001;28;93715;-76
2022/03/02 16:28:34;;;;;;;17.35;10.02;;;6.80;94.40;;;;;;4954665;28;94442;-76
2022/03/02 16:31:02;;;;;;;13.43;9.82;;;6.70;94.00;;;;;;4954275;28;94873;-75
2022/03/02 16:33:28;;;;;;;16.48;10.05;;;6.70;94.60;;;;;;4958650;28;95299;-76
2022/03/02 16:35:54;;;;;;;14.93;10.27;;;6.60;94.30;;;;;;4958151;28;94603;-77
2022/03/02 16:38:23;;;;;;;16.25;10.15;;;6.60;94.40;;;;;;4957775;28;94908;-75
2022/03/02 16:40:51;;;;;;;16.60;10.05;;;6.50;94.30;;;;;;4957552;28;95030;-75
2022/03/02 16:43:18;;;;;;;15.30;10.25;;;6.50;94.60;;;;;;4958084;28;94531;-76
2022/03/02 16:45:45;;;;;;;16.08;10.85;;;6.40;94.20;;;;;;4957770;28;94534;-75
2022/03/02 16:48:11;;;;;;;18.98;11.10;;;6.30;94.50;;;;;;4957551;28;95602;-77
2022/03/02 16:50:38;;;;;;;15.13;10.13;;;6.20;94.70;;;;;;4957713;28;95896;-76
2022/03/02 16:53:05;;;;;;;15.07;9.95;;;6.10;94.60;;;;;;4958216;28;94510;-76
2022/03/02 16:55:31;;;;;;;18.92;11.63;;;6.10;95.00;;;;;;4958224;28;94394;-76
2022/03/02 16:58:00;;;;;;;15.48;11.35;;;6.00;95.30;;;;;;4939147;28;97847;-75
2022/03/02 17:00:31;;;;;;;17.63;11.35;;;5.90;94.90;;;;;;4957231;28;95734;-75
2022/03/02 17:02:59;;;;;;;18.10;11.63;;;5.90;95.10;;;;;;4958011;28;94369;-77
2022/03/02 17:05:24;;;;;;;20.80;13.55;;;5.80;95.70;;;;;;4957221;28;94603;-75
2022/03/02 17:07:50;;;;;;;18.45;11.57;;;5.70;95.50;;;;;;4958020;28;94991;-76
2022/03/02 17:10:16;;;;;;;21.92;12.32;;;5.70;96.00;;;;;;4957440;28;94630;-76
2022/03/02 17:12:43;;;;;;;18.88;11.73;;;5.60;96.30;;;;;;4957988;28;94403;-77
2022/03/02 17:15:10;;;;;;;18.08;11.48;;;5.60;96.10;;;;;;4970377;23;93804;-75
2022/03/02 17:17:36;;;;;;;19.92;12.00;;;5.50;96.00;;;;;;4956286;28;96648;-75
2022/03/02 17:20:04;;;;;;;19.52;12.60;;;5.50;95.70;;;;;;4938667;28;97490;-74
2022/03/02 17:22:29;;;;;;;19.02;11.95;;;5.50;96.00;;;;;;4956853;28;95529;-74
2022/03/02 17:24:56;;;;;;;20.88;14.65;;;5.40;96.10;;;;;;4956908;28;94344;-75
2022/03/02 17:27:22;;;;;;;20.63;13.05;;;5.40;96.40;;;;;;4956971;28;95142;-76
2022/03/02 17:29:49;;;;;;;17.48;12.27;;;5.30;96.30;;;;;;4956561;28;95912;-77
2022/03/02 17:32:16;;;;;;;21.35;11.93;;;5.30;96.50;;;;;;4957132;28;94533;-73
2022/03/02 17:34:42;;;;;;;19.02;12.35;;;5.30;97.00;;;;;;4957417;28;94507;-75
2022/03/02 17:37:13;;;;;;;18.90;12.98;;;5.30;97.10;;;;;;4957137;28;94477;-73
2022/03/02 17:39:39;;;;;;;22.25;12.93;;;5.30;96.80;;;;;;4957083;28;93948;-74
2022/03/02 17:42:06;;;;;;;19.77;12.63;;;5.20;96.80;;;;;;4957314;28;94501;-75
2022/03/02 17:44:32;;;;;;;22.58;13.60;;;5.20;97.30;;;;;;4938430;28;94900;-73
2022/03/02 17:46:58;;;;;;;20.38;13.13;;;5.20;97.80;;;;;;4938464;28;99172;-78
2022/03/02 17:49:23;;;;;;;22.02;13.95;;;5.10;97.80;;;;;;4956010;28;96313;-76
2022/03/02 17:51:50;;;;;;;21.38;13.13;;;5.10;98.10;;;;;;4956599;28;94531;-74
2022/03/02 17:54:16;;;;;;;23.05;13.68;;;5.00;98.20;;;;;;4953615;28;94828;-77
2022/03/02 17:56:45;;;;;;;22.40;14.45;;;5.00;98.40;;;;;;4960980;28;95677;-75
2022/03/02 17:59:12;;;;;;;23.73;14.57;;;4.90;98.60;;;;;;4958109;28;98078;-74